Time;durP1;ratioP1;P1;durP2;ratioP2;P2;SDS_P1;SDS_P2;PMS_P1;PMS_P2;Temp;Humidity;BMP_temperature;BMP_pressure;BME280_temperature;BME280_humidity;BME280_pressure;Samples;Min_cycle;Max_cycle;Signal;HPM_P1;HPM_P2
2021/10/01 00:00:47;;;;;;;8.57;3.40;;;6.80;88.50;;;;;;4988683;28;20114;-83
2021/10/01 00:03:13;;;;;;;6.43;3.70;;;6.80;88.50;;;;;;4987311;28;20505;-83
2021/10/01 00:05:39;;;;;;;11.02;4.40;;;6.80;88.80;;;;;;4987022;28;20058;-83
2021/10/01 00:08:06;;;;;;;13.20;6.38;;;6.70;89.20;;;;;;4989249;28;20444;-83
2021/10/01 00:10:32;;;;;;;20.52;11.48;;;6.70;88.20;;;;;;4987949;28;20988;-83
2021/10/01 00:12:57;;;;;;;11.00;5.38;;;6.70;88.20;;;;;;4987355;28;20397;-83
2021/10/01 00:15:23;;;;;;;3.28;2.78;;;6.80;87.00;;;;;;4989567;28;20030;-83
2021/10/01 00:17:49;;;;;;;2.20;1.55;;;6.60;86.90;;;;;;4988253;28;20098;-83
2021/10/01 00:20:15;;;;;;;1.40;1.38;;;6.50;87.10;;;;;;4985680;28;20054;-83
2021/10/01 00:22:41;;;;;;;1.52;1.42;;;6.50;87.10;;;;;;4989613;28;20954;-83
2021/10/01 00:25:07;;;;;;;2.22;1.20;;;6.50;87.70;;;;;;4988789;28;20057;-83
2021/10/01 00:27:33;;;;;;;4.25;1.98;;;6.40;88.00;;;;;;4989636;28;20038;-83
2021/10/01 00:29:59;;;;;;;11.38;5.45;;;6.40;88.60;;;;;;4988174;28;20030;-83
2021/10/01 00:32:24;;;;;;;6.53;3.70;;;6.40;89.30;;;;;;4988506;28;20236;-83
2021/10/01 00:34:51;;;;;;;7.13;2.33;;;6.40;89.40;;;;;;4991253;28;20058;-83
2021/10/01 00:37:17;;;;;;;10.15;5.40;;;6.40;89.60;;;;;;4990200;28;20113;-83
2021/10/01 00:39:43;;;;;;;7.38;4.28;;;6.40;89.50;;;;;;4989657;28;20169;-83
2021/10/01 00:42:08;;;;;;;6.57;3.70;;;6.40;89.10;;;;;;4990265;28;20026;-83
2021/10/01 00:44:34;;;;;;;7.28;3.65;;;6.40;88.60;;;;;;4987273;28;20121;-83
2021/10/01 00:47:00;;;;;;;4.38;2.72;;;6.40;88.30;;;;;;4987803;28;20091;-83
2021/10/01 00:49:26;;;;;;;5.35;2.78;;;6.40;88.80;;;;;;4986367;28;20513;-83
2021/10/01 00:51:52;;;;;;;3.33;2.58;;;6.30;87.00;;;;;;4985216;28;20033;-83
2021/10/01 00:54:19;;;;;;;3.70;2.75;;;6.20;86.80;;;;;;4988196;28;20030;-83
2021/10/01 00:56:45;;;;;;;6.78;3.28;;;6.10;87.00;;;;;;4988479;28;20022;-83
2021/10/01 00:59:11;;;;;;;15.95;5.55;;;6.10;87.80;;;;;;4990134;28;20724;-83
2021/10/01 01:01:37;;;;;;;7.15;3.40;;;6.00;88.80;;;;;;4990939;28;20121;-84
2021/10/01 01:04:07;;;;;;;7.93;3.97;;;6.10;89.00;;;;;;4986933;28;20034;-83
2021/10/01 01:06:42;;;;;;;14.57;5.95;;;6.10;88.90;;;;;;5006146;28;20041;-83
2021/10/01 01:09:22;;;;;;;12.15;5.57;;;6.10;89.50;;;;;;4984632;28;20121;-83
2021/10/01 01:12:09;;;;;;;3.17;2.10;;;6.10;90.00;;;;;;4985005;28;20068;-83
2021/10/01 01:15:00;;;;;;;2.08;1.75;;;6.00;90.20;;;;;;4986352;28;20105;-83
2021/10/01 01:17:32;;;;;;;2.30;1.67;;;6.10;90.10;;;;;;4971939;28;21621;-83
2021/10/01 01:20:21;;;;;;;2.42;1.63;;;6.10;89.50;;;;;;4987333;28;20080;-84
2021/10/01 01:22:51;;;;;;;4.75;2.67;;;6.20;89.30;;;;;;5003100;28;20558;-83
2021/10/01 01:25:43;;;;;;;29.02;10.38;;;6.10;89.80;;;;;;5000944;28;20121;-83
2021/10/01 01:28:13;;;;;;;4.07;2.65;;;6.00;89.80;;;;;;4988681;28;20034;-83
2021/10/01 01:30:45;;;;;;;1.75;1.50;;;6.00;90.00;;;;;;5001677;28;20485;-83
2021/10/01 01:33:15;;;;;;;11.40;5.05;;;6.00;89.70;;;;;;5004115;28;20062;-84
2021/10/01 01:35:42;;;;;;;11.48;5.25;;;6.00;89.40;;;;;;4984924;28;20038;-83
2021/10/01 01:38:15;;;;;;;25.35;11.68;;;6.00;89.10;;;;;;4984479;28;20030;-83
2021/10/01 01:40:47;;;;;;;4.35;2.90;;;5.90;90.10;;;;;;4992512;28;20110;-83
2021/10/01 01:43:13;;;;;;;1.98;1.77;;;5.90;90.20;;;;;;4989441;28;20022;-83
2021/10/01 01:45:41;;;;;;;1.90;1.70;;;5.90;90.20;;;;;;4989554;28;20042;-83
2021/10/01 01:48:08;;;;;;;1.30;1.20;;;6.00;89.30;;;;;;4991484;28;20033;-84
2021/10/01 01:50:34;;;;;;;1.58;1.48;;;6.00;87.60;;;;;;4987047;28;20129;-83
2021/10/01 01:53:02;;;;;;;24.95;8.32;;;5.80;88.40;;;;;;4997552;28;20034;-83
2021/10/01 01:55:29;;;;;;;5.93;2.55;;;5.90;88.00;;;;;;4985569;28;20024;-83
2021/10/01 01:57:56;;;;;;;6.53;2.28;;;5.80;88.00;;;;;;4985382;28;20700;-83
2021/10/01 02:00:22;;;;;;;16.45;6.53;;;5.70;89.20;;;;;;4987406;28;20060;-83
2021/10/01 02:02:50;;;;;;;10.68;4.63;;;5.80;89.60;;;;;;4991033;28;20146;-83
2021/10/01 02:05:16;;;;;;;33.78;12.15;;;5.80;89.00;;;;;;4990085;28;20061;-83
2021/10/01 02:07:44;;;;;;;4.65;2.70;;;5.80;89.50;;;;;;5000502;28;20047;-83
2021/10/01 02:10:10;;;;;;;2.03;1.63;;;5.80;89.40;;;;;;5002279;28;20049;-83
2021/10/01 02:12:36;;;;;;;2.67;1.88;;;5.90;90.00;;;;;;4989368;28;20030;-83
2021/10/01 02:15:03;;;;;;;1.67;1.58;;;5.90;89.50;;;;;;4986791;28;20026;-83
2021/10/01 02:17:32;;;;;;;1.70;1.60;;;5.80;88.10;;;;;;5001942;28;20026;-83
2021/10/01 02:20:01;;;;;;;1.90;1.67;;;5.80;88.60;;;;;;4987768;28;20034;-83
2021/10/01 02:22:28;;;;;;;1.83;1.50;;;5.80;88.50;;;;;;4985024;28;20069;-83
2021/10/01 02:24:54;;;;;;;1.52;1.42;;;5.70;87.00;;;;;;4986902;28;20501;-83
2021/10/01 02:27:43;;;;;;;1.58;1.48;;;5.50;86.30;;;;;;4990496;28;20030;-83
2021/10/01 02:30:16;;;;;;;1.05;1.02;;;5.50;87.50;;;;;;4988255;28;20030;-83
2021/10/01 02:33:07;;;;;;;1.20;1.20;;;5.40;87.80;;;;;;4988823;28;20041;-83
2021/10/01 02:35:33;;;;;;;1.42;1.30;;;5.40;88.10;;;;;;4984971;28;20157;-83
2021/10/01 02:37:59;;;;;;;1.75;1.25;;;5.40;89.00;;;;;;4986034;28;20018;-83
2021/10/01 02:40:26;;;;;;;1.60;1.50;;;5.40;89.90;;;;;;4987768;28;20069;-83
2021/10/01 02:42:51;;;;;;;1.50;1.50;;;5.30;90.30;;;;;;4988316;28;20081;-83
2021/10/01 02:45:17;;;;;;;4.38;3.67;;;5.40;90.20;;;;;;4986038;28;21543;-84
2021/10/01 02:47:43;;;;;;;2.25;2.05;;;5.40;90.20;;;;;;4986763;28;20428;-83
2021/10/01 02:50:17;;;;;;;3.08;2.70;;;5.40;90.30;;;;;;4984698;28;20411;-83
2021/10/01 02:53:06;;;;;;;1.90;1.60;;;5.40;90.10;;;;;;4986478;28;20120;-83
2021/10/01 02:55:47;;;;;;;4.72;3.70;;;5.50;90.40;;;;;;4988571;28;20346;-83
2021/10/01 02:58:25;;;;;;;3.10;2.90;;;5.50;90.30;;;;;;4991839;28;20053;-83
2021/10/01 03:00:54;;;;;;;2.85;1.85;;;5.50;90.40;;;;;;4994631;28;20030;-83
2021/10/01 03:03:26;;;;;;;3.35;2.30;;;5.40;90.60;;;;;;4994360;28;20026;-84
2021/10/01 03:05:54;;;;;;;2.17;1.73;;;5.30;91.10;;;;;;4995516;28;20077;-84
2021/10/01 03:08:22;;;;;;;1.95;1.80;;;5.40;90.80;;;;;;4995120;28;20484;-84
2021/10/01 03:10:50;;;;;;;1.73;1.60;;;5.40;90.50;;;;;;4996140;28;20126;-83
2021/10/01 03:13:19;;;;;;;3.55;2.13;;;5.40;90.70;;;;;;5010957;28;20481;-83
2021/10/01 03:15:45;;;;;;;4.50;2.00;;;5.40;90.60;;;;;;4989251;28;20094;-83
2021/10/01 03:18:11;;;;;;;3.65;2.45;;;5.40;90.50;;;;;;4993737;28;20441;-83
2021/10/01 03:20:38;;;;;;;2.88;2.38;;;5.50;90.20;;;;;;4994447;28;20030;-83
2021/10/01 03:23:04;;;;;;;2.03;1.80;;;5.40;90.10;;;;;;4990512;28;20487;-83
2021/10/01 03:25:29;;;;;;;6.65;2.47;;;5.40;90.50;;;;;;4989167;28;20061;-83
2021/10/01 03:27:56;;;;;;;2.25;1.90;;;5.40;90.30;;;;;;4996514;28;20038;-83
2021/10/01 03:30:22;;;;;;;3.00;1.50;;;5.40;90.20;;;;;;4993275;28;20050;-83
2021/10/01 03:32:48;;;;;;;2.65;2.15;;;5.40;90.00;;;;;;4994464;28;20066;-83
2021/10/01 03:35:14;;;;;;;3.25;1.70;;;5.40;89.40;;;;;;4993572;28;20058;-83
2021/10/01 03:37:42;;;;;;;2.72;2.05;;;5.40;89.20;;;;;;4993498;28;20481;-83
2021/10/01 03:40:10;;;;;;;13.35;7.97;;;5.30;89.50;;;;;;4993507;28;20065;-83
2021/10/01 03:42:39;;;;;;;46.83;22.38;;;5.30;90.00;;;;;;4989778;28;20054;-83
2021/10/01 03:45:07;;;;;;;38.50;19.90;;;5.40;90.10;;;;;;4994484;28;20038;-83
2021/10/01 03:47:33;;;;;;;15.02;8.40;;;5.30;90.20;;;;;;4993606;28;20030;-83
2021/10/01 03:49:59;;;;;;;5.38;3.00;;;5.40;90.30;;;;;;4989236;28;20069;-83
2021/10/01 03:52:25;;;;;;;2.67;1.95;;;5.40;90.20;;;;;;5008578;28;20058;-83
2021/10/01 03:54:52;;;;;;;1.40;1.30;;;5.40;90.00;;;;;;4991696;28;20109;-84
2021/10/01 03:57:18;;;;;;;2.92;2.05;;;5.40;89.60;;;;;;4991044;28;20072;-83
2021/10/01 03:59:44;;;;;;;2.92;1.67;;;5.40;89.50;;;;;;4988163;28;20049;-83
2021/10/01 04:02:10;;;;;;;3.20;1.88;;;5.40;89.60;;;;;;4992277;28;20029;-83
2021/10/01 04:04:36;;;;;;;3.47;1.70;;;5.30;89.50;;;;;;4989710;28;20030;-83
2021/10/01 04:07:02;;;;;;;2.00;1.75;;;5.30;89.80;;;;;;4992862;28;20125;-83
2021/10/01 04:09:29;;;;;;;2.42;2.22;;;5.30;89.50;;;;;;5003938;28;20034;-83
2021/10/01 04:11:56;;;;;;;2.63;1.88;;;5.30;89.60;;;;;;4994318;28;20030;-83
2021/10/01 04:14:22;;;;;;;5.35;1.88;;;5.30;89.90;;;;;;4993688;28;20418;-83
2021/10/01 04:16:48;;;;;;;2.80;1.88;;;5.20;90.10;;;;;;4982919;28;20023;-83
2021/10/01 04:19:14;;;;;;;2.92;1.85;;;5.20;90.00;;;;;;4995306;28;20018;-83
2021/10/01 04:21:40;;;;;;;2.28;2.03;;;5.20;90.00;;;;;;4991781;28;20062;-83
2021/10/01 04:24:06;;;;;;;2.47;1.70;;;5.10;89.80;;;;;;5009657;28;20116;-83
2021/10/01 04:26:31;;;;;;;2.03;1.60;;;5.10;89.50;;;;;;4990511;28;20452;-83
2021/10/01 04:28:57;;;;;;;3.30;2.35;;;5.10;89.90;;;;;;4992591;28;20740;-83
2021/10/01 04:31:23;;;;;;;1.58;1.48;;;5.10;90.00;;;;;;4991516;28;20042;-83
2021/10/01 04:33:49;;;;;;;2.85;1.70;;;5.00;89.90;;;;;;4993123;28;20093;-83
2021/10/01 04:36:15;;;;;;;1.70;1.60;;;5.00;89.70;;;;;;4992205;28;20731;-83
2021/10/01 04:38:41;;;;;;;1.63;1.52;;;5.00;89.80;;;;;;5006109;28;20057;-83
2021/10/01 04:41:07;;;;;;;1.08;1.08;;;5.00;90.00;;;;;;4993346;28;20548;-83
2021/10/01 04:43:32;;;;;;;1.30;1.30;;;5.00;89.80;;;;;;4992683;28;20614;-83
2021/10/01 04:45:58;;;;;;;1.60;1.50;;;5.00;89.70;;;;;;4989709;28;20027;-83
2021/10/01 04:48:24;;;;;;;2.15;1.58;;;5.00;89.80;;;;;;4990020;28;20485;-83
2021/10/01 04:50:50;;;;;;;1.67;1.58;;;5.00;90.40;;;;;;4992023;28;20030;-83
2021/10/01 04:53:17;;;;;;;2.60;2.05;;;5.00;90.40;;;;;;4992777;28;20084;-83
2021/10/01 04:55:46;;;;;;;3.60;1.50;;;5.00;90.30;;;;;;4990268;28;20023;-83
2021/10/01 04:58:12;;;;;;;3.13;2.20;;;5.00;90.40;;;;;;4989280;28;20568;-83
2021/10/01 05:00:38;;;;;;;2.58;2.10;;;5.00;90.70;;;;;;4984377;28;20451;-82
2021/10/01 05:03:04;;;;;;;2.55;2.08;;;5.00;90.70;;;;;;4989983;28;20022;-82
2021/10/01 05:05:31;;;;;;;2.85;1.90;;;5.00;90.70;;;;;;4989937;28;20034;-82
2021/10/01 05:07:57;;;;;;;3.05;2.33;;;5.00;90.70;;;;;;4985715;28;20038;-82
2021/10/01 05:10:23;;;;;;;3.75;2.15;;;5.00;90.50;;;;;;4991346;28;20034;-83
2021/10/01 05:12:50;;;;;;;2.58;2.38;;;5.10;90.40;;;;;;4991023;28;20027;-83
2021/10/01 05:15:18;;;;;;;5.47;2.13;;;5.10;90.30;;;;;;4990147;28;20026;-82
2021/10/01 05:17:44;;;;;;;2.92;2.10;;;5.10;90.40;;;;;;4991985;28;20026;-83
2021/10/01 05:20:12;;;;;;;5.07;2.53;;;5.10;90.30;;;;;;4975322;28;20050;-83
2021/10/01 05:22:39;;;;;;;2.50;2.30;;;5.00;91.10;;;;;;4986017;28;20038;-83
2021/10/01 05:25:06;;;;;;;3.90;2.22;;;4.90;91.60;;;;;;4989839;28;20031;-83
2021/10/01 05:27:32;;;;;;;3.47;2.20;;;5.00;91.20;;;;;;4992128;28;20037;-83
2021/10/01 05:29:58;;;;;;;1.55;1.45;;;5.00;91.30;;;;;;4992391;28;20026;-83
2021/10/01 05:32:23;;;;;;;3.50;1.67;;;5.00;90.50;;;;;;4994268;28;20054;-83
2021/10/01 05:34:49;;;;;;;1.10;1.10;;;5.00;89.90;;;;;;4993654;28;20025;-83
2021/10/01 05:37:15;;;;;;;1.15;1.15;;;4.90;89.80;;;;;;4990830;28;20038;-82
2021/10/01 05:39:41;;;;;;;1.73;1.63;;;5.00;90.00;;;;;;4992673;28;20045;-83
2021/10/01 05:42:06;;;;;;;2.13;1.38;;;5.00;90.30;;;;;;4993901;28;20034;-83
2021/10/01 05:44:33;;;;;;;1.95;1.20;;;5.00;90.20;;;;;;4992887;28;20030;-83
2021/10/01 05:47:02;;;;;;;2.90;1.33;;;4.90;90.30;;;;;;4988275;28;20660;-82
2021/10/01 05:49:40;;;;;;;2.15;1.30;;;4.90;90.50;;;;;;4987697;28;20048;-83
2021/10/01 05:52:21;;;;;;;1.55;1.45;;;4.90;90.60;;;;;;5001133;28;20112;-83
2021/10/01 05:54:50;;;;;;;1.95;1.58;;;4.90;90.60;;;;;;4992742;28;20029;-83
2021/10/01 05:57:17;;;;;;;2.47;1.35;;;4.90;90.80;;;;;;4990516;28;20060;-83
2021/10/01 05:59:43;;;;;;;2.55;1.48;;;4.90;91.00;;;;;;4992441;28;20030;-83
2021/10/01 06:02:15;;;;;;;1.70;1.60;;;4.90;91.10;;;;;;4991180;28;20512;-83
2021/10/01 06:04:42;;;;;;;2.17;1.48;;;4.90;91.20;;;;;;4990744;28;20030;-83
2021/10/01 06:07:08;;;;;;;2.03;1.88;;;4.90;91.50;;;;;;4986291;28;20382;-83
2021/10/01 06:09:35;;;;;;;2.03;1.67;;;4.90;91.60;;;;;;4989303;28;20125;-83
2021/10/01 06:12:01;;;;;;;2.95;2.15;;;4.90;91.90;;;;;;4985289;28;20093;-83
2021/10/01 06:14:27;;;;;;;2.47;2.00;;;5.00;92.00;;;;;;4991510;28;20034;-82
2021/10/01 06:16:53;;;;;;;2.05;1.90;;;5.00;92.10;;;;;;4992021;28;20493;-82
2021/10/01 06:19:21;;;;;;;2.35;2.15;;;5.00;92.00;;;;;;4990018;28;20046;-83
2021/10/01 06:21:47;;;;;;;2.05;1.95;;;5.10;92.10;;;;;;4993525;28;20022;-83
2021/10/01 06:24:13;;;;;;;3.05;2.50;;;5.20;92.10;;;;;;4991215;28;20026;-83
2021/10/01 06:26:39;;;;;;;3.42;2.13;;;5.20;92.10;;;;;;4988462;28;20076;-83
2021/10/01 06:29:04;;;;;;;2.33;1.88;;;5.30;92.20;;;;;;4990036;28;20504;-83
2021/10/01 06:31:30;;;;;;;3.47;2.25;;;5.30;92.10;;;;;;4985543;28;20197;-83
2021/10/01 06:33:56;;;;;;;2.83;2.00;;;5.40;92.10;;;;;;4990076;28;20121;-83
2021/10/01 06:36:23;;;;;;;2.25;1.90;;;5.40;92.40;;;;;;4989947;28;20681;-82
2021/10/01 06:38:50;;;;;;;2.80;2.50;;;5.50;92.10;;;;;;4987204;28;20035;-83
2021/10/01 06:41:16;;;;;;;3.40;2.28;;;5.50;92.40;;;;;;4992252;28;20033;-82
2021/10/01 06:43:44;;;;;;;2.58;2.35;;;5.50;92.40;;;;;;4986139;28;20504;-83
2021/10/01 06:46:26;;;;;;;2.65;2.45;;;5.60;92.50;;;;;;4996854;28;20539;-83
2021/10/01 07:29:29;;;;;;;4.82;3.20;;;6.70;95.90;;;;;;4992392;28;20034;-83
2021/10/01 08:21:24;;;;;;;3.17;2.88;;;9.00;94.50;;;;;;4990172;28;20117;-82
2021/10/01 08:23:50;;;;;;;8.27;4.30;;;9.10;94.20;;;;;;4990339;28;20527;-82
2021/10/01 08:26:16;;;;;;;3.97;3.20;;;9.20;94.40;;;;;;4974305;28;20037;-82
2021/10/01 08:28:42;;;;;;;5.47;3.38;;;9.30;94.10;;;;;;4995555;28;20038;-82
2021/10/01 08:31:07;;;;;;;5.28;3.42;;;9.40;93.90;;;;;;4991257;28;20513;-83
2021/10/01 08:33:34;;;;;;;7.93;3.08;;;9.50;93.80;;;;;;4993942;28;20450;-82
2021/10/01 08:36:00;;;;;;;3.42;2.88;;;9.60;93.60;;;;;;4997452;28;20026;-82
2021/10/01 08:38:26;;;;;;;3.65;2.80;;;9.70;93.90;;;;;;4974462;28;20038;-84
2021/10/01 08:40:53;;;;;;;4.20;3.28;;;9.90;93.60;;;;;;4994698;28;20029;-82
2021/10/01 08:43:20;;;;;;;5.30;3.13;;;10.10;94.50;;;;;;4995159;28;20026;-82
2021/10/01 08:45:46;;;;;;;6.43;2.95;;;10.20;93.90;;;;;;4988390;28;20033;-82
2021/10/01 08:48:12;;;;;;;3.47;2.90;;;10.30;93.80;;;;;;4995981;28;20088;-82
2021/10/01 08:50:39;;;;;;;4.25;2.78;;;10.50;93.70;;;;;;4993966;28;20117;-82
2021/10/01 08:53:09;;;;;;;2.90;2.70;;;10.60;93.00;;;;;;4993727;28;20030;-82
2021/10/01 08:55:36;;;;;;;5.10;3.03;;;10.80;92.70;;;;;;4991339;28;20112;-82
2021/10/01 08:58:02;;;;;;;2.97;2.70;;;10.80;92.70;;;;;;4992116;28;20033;-82
2021/10/01 09:00:28;;;;;;;6.65;2.95;;;11.00;93.10;;;;;;4993149;28;20030;-82
2021/10/01 09:02:55;;;;;;;3.13;2.70;;;11.10;91.90;;;;;;4996493;28;20600;-82
2021/10/01 09:05:21;;;;;;;5.65;3.03;;;11.20;92.30;;;;;;4991524;28;20545;-82
2021/10/01 09:07:46;;;;;;;3.25;2.95;;;11.30;92.20;;;;;;4991283;28;20133;-82
2021/10/01 09:10:14;;;;;;;4.70;2.88;;;11.50;91.60;;;;;;4987167;28;20034;-82
2021/10/01 09:12:52;;;;;;;3.35;2.92;;;11.50;91.10;;;;;;4989739;28;20058;-82
2021/10/01 09:15:17;;;;;;;4.20;2.78;;;11.50;90.80;;;;;;4990994;28;20705;-82
2021/10/01 09:17:50;;;;;;;6.93;3.25;;;11.70;91.70;;;;;;4992997;28;20050;-82
2021/10/01 09:20:27;;;;;;;4.45;2.80;;;11.80;91.10;;;;;;4991994;28;20026;-82
2021/10/01 09:23:14;;;;;;;3.22;2.75;;;11.90;90.80;;;;;;4991343;28;20097;-82
2021/10/01 09:25:40;;;;;;;2.67;2.40;;;12.10;90.80;;;;;;4989052;28;20030;-83
2021/10/01 09:28:12;;;;;;;3.47;2.50;;;12.20;90.70;;;;;;4989850;28;20041;-82
2021/10/01 09:30:47;;;;;;;4.32;2.60;;;12.30;90.40;;;;;;4990299;28;20066;-83
2021/10/01 09:33:16;;;;;;;4.30;2.88;;;12.40;90.20;;;;;;4990731;28;20037;-82
2021/10/01 09:35:43;;;;;;;3.13;2.70;;;12.50;89.60;;;;;;4988361;28;20037;-83
2021/10/01 09:38:15;;;;;;;4.95;3.20;;;12.60;88.60;;;;;;4975471;28;20041;-82
2021/10/01 09:40:43;;;;;;;4.18;2.75;;;12.70;90.00;;;;;;4992342;28;20027;-82
2021/10/01 09:43:28;;;;;;;3.85;2.65;;;12.80;89.80;;;;;;4994977;28;20024;-82
2021/10/01 09:46:08;;;;;;;4.45;2.88;;;12.80;88.30;;;;;;4975526;28;20022;-83
2021/10/01 09:48:36;;;;;;;3.78;2.60;;;12.90;88.30;;;;;;4998743;28;20133;-83
2021/10/01 09:51:18;;;;;;;2.75;1.88;;;13.00;88.70;;;;;;4991386;28;20031;-82
2021/10/01 09:53:52;;;;;;;2.72;2.25;;;13.10;87.50;;;;;;4992234;28;20505;-83
2021/10/01 09:56:40;;;;;;;2.03;1.92;;;13.30;88.80;;;;;;4992019;28;20022;-83
2021/10/01 09:59:16;;;;;;;2.22;2.03;;;13.40;86.50;;;;;;4990421;28;20088;-82
2021/10/01 10:02:13;;;;;;;4.32;2.03;;;13.50;86.10;;;;;;4992828;28;20501;-83
2021/10/01 10:04:40;;;;;;;2.22;2.05;;;13.60;88.20;;;;;;4989741;28;20061;-83
2021/10/01 10:07:26;;;;;;;1.40;1.30;;;13.70;86.80;;;;;;4984823;28;20122;-83
2021/10/01 10:09:56;;;;;;;2.47;1.60;;;13.80;84.70;;;;;;4991964;28;20034;-82
2021/10/01 10:12:44;;;;;;;2.42;1.48;;;13.90;83.90;;;;;;4988674;28;20061;-82
2021/10/01 10:15:17;;;;;;;2.50;1.25;;;14.00;82.80;;;;;;5009894;28;20664;-82
2021/10/01 10:17:50;;;;;;;2.28;1.33;;;14.10;79.30;;;;;;4994293;28;20080;-82
2021/10/01 10:20:22;;;;;;;2.42;2.20;;;14.20;79.70;;;;;;4990162;28;20026;-83
2021/10/01 10:22:47;;;;;;;1.85;1.08;;;14.30;78.90;;;;;;4974832;28;20133;-83
2021/10/01 10:25:13;;;;;;;2.47;1.15;;;14.30;79.10;;;;;;4991453;28;20110;-83
2021/10/01 10:27:39;;;;;;;1.85;1.30;;;14.30;79.20;;;;;;4988979;28;20026;-83
2021/10/01 10:30:06;;;;;;;1.70;1.35;;;14.20;77.60;;;;;;4990655;28;20485;-83
2021/10/01 10:32:33;;;;;;;2.53;1.20;;;14.10;77.80;;;;;;4989628;28;20022;-83
2021/10/01 10:35:08;;;;;;;1.30;1.20;;;14.20;79.80;;;;;;4991147;28;20105;-83
2021/10/01 10:37:41;;;;;;;1.92;1.25;;;14.30;79.60;;;;;;4991389;28;20034;-83
2021/10/01 10:40:17;;;;;;;1.52;1.40;;;14.40;78.20;;;;;;4995538;28;20032;-82
2021/10/01 10:42:45;;;;;;;1.70;1.30;;;14.50;75.70;;;;;;4990217;28;20027;-83
2021/10/01 10:45:21;;;;;;;3.05;1.35;;;14.60;76.50;;;;;;4999349;28;20034;-83
2021/10/01 10:48:01;;;;;;;1.50;1.40;;;14.60;76.30;;;;;;4986513;28;20117;-83
2021/10/01 10:50:36;;;;;;;1.20;1.20;;;14.60;74.80;;;;;;4997084;28;20036;-83
2021/10/01 10:53:19;;;;;;;2.05;1.30;;;14.80;75.20;;;;;;4992149;28;20520;-83
2021/10/01 10:55:50;;;;;;;1.98;1.38;;;14.80;76.50;;;;;;4990007;28;20596;-83
2021/10/01 10:58:32;;;;;;;1.30;1.20;;;14.90;76.30;;;;;;4979668;28;20033;-83
2021/10/01 11:01:13;;;;;;;1.83;1.38;;;15.00;75.30;;;;;;4990119;28;20497;-83
2021/10/01 11:03:40;;;;;;;1.55;1.45;;;14.90;74.30;;;;;;4989155;28;20030;-83
2021/10/01 11:06:08;;;;;;;1.10;1.10;;;14.90;75.10;;;;;;4985999;28;20029;-84
2021/10/01 11:08:36;;;;;;;4.72;1.50;;;14.90;74.90;;;;;;4987078;28;20085;-83
2021/10/01 11:11:26;;;;;;;2.75;1.20;;;15.10;75.80;;;;;;4956441;28;20038;-83
2021/10/01 11:14:19;;;;;;;2.10;1.13;;;15.20;74.70;;;;;;4990652;28;20557;-83
2021/10/01 11:16:54;;;;;;;1.10;1.02;;;15.20;74.10;;;;;;4992353;28;20030;-83
2021/10/01 11:19:43;;;;;;;2.92;1.02;;;15.30;74.70;;;;;;4997178;28;20773;-83
2021/10/01 11:22:33;;;;;;;0.90;0.90;;;15.40;73.70;;;;;;4990061;28;20045;-83
2021/10/01 11:25:02;;;;;;;1.13;0.88;;;15.50;73.70;;;;;;4996370;28;20056;-83
2021/10/01 11:27:28;;;;;;;2.05;1.10;;;15.50;72.00;;;;;;4993879;28;20026;-83
2021/10/01 11:29:56;;;;;;;1.25;1.15;;;15.50;72.40;;;;;;4994972;28;20085;-83
2021/10/01 11:32:24;;;;;;;1.93;0.90;;;15.60;71.90;;;;;;4993582;28;20077;-84
2021/10/01 11:34:59;;;;;;;0.90;0.85;;;15.80;71.90;;;;;;4997074;28;20026;-83
2021/10/01 11:37:37;;;;;;;1.23;0.75;;;15.80;71.90;;;;;;4994588;28;20081;-83
2021/10/01 11:40:05;;;;;;;2.15;1.00;;;15.70;72.20;;;;;;4993188;28;20026;-83
2021/10/01 11:42:39;;;;;;;1.90;1.00;;;15.80;71.10;;;;;;4993251;28;20101;-84
2021/10/01 11:45:10;;;;;;;1.30;1.20;;;15.90;71.50;;;;;;4989732;28;20031;-82
2021/10/01 11:47:36;;;;;;;1.85;0.95;;;16.00;70.30;;;;;;4992251;28;20100;-83
2021/10/01 11:50:04;;;;;;;1.08;0.80;;;16.10;71.50;;;;;;4995162;28;20057;-83
2021/10/01 11:52:40;;;;;;;1.08;1.00;;;16.10;72.20;;;;;;4994389;28;20393;-83
2021/10/01 11:55:06;;;;;;;1.05;1.02;;;16.20;71.40;;;;;;4998181;28;20030;-83
2021/10/01 11:57:37;;;;;;;2.03;0.88;;;16.30;72.30;;;;;;4996619;28;20091;-83
2021/10/01 12:00:09;;;;;;;1.95;1.13;;;16.30;71.00;;;;;;4996500;28;20726;-83
2021/10/01 12:02:39;;;;;;;0.80;0.80;;;16.30;71.20;;;;;;4995262;28;20093;-83
2021/10/01 12:05:33;;;;;;;1.85;0.95;;;16.30;71.30;;;;;;5005102;28;20444;-83
2021/10/01 12:08:05;;;;;;;3.47;0.88;;;16.30;71.40;;;;;;4984261;28;20046;-83
2021/10/01 12:10:42;;;;;;;1.73;0.80;;;16.30;72.50;;;;;;4992837;28;20515;-83
2021/10/01 12:13:16;;;;;;;1.63;1.00;;;16.40;71.90;;;;;;4991028;28;20042;-83
2021/10/01 12:16:04;;;;;;;1.10;0.98;;;16.50;72.00;;;;;;4991842;28;20034;-83
2021/10/01 12:18:57;;;;;;;2.97;1.15;;;16.50;69.20;;;;;;4993399;28;20026;-83
2021/10/01 12:21:25;;;;;;;2.67;0.82;;;16.50;70.30;;;;;;4990786;28;20041;-83
2021/10/01 12:24:10;;;;;;;;;;;16.60;71.60;;;;;;4993854;28;20105;-83
2021/10/01 12:26:43;;;;;;;0.63;0.60;;;16.70;70.70;;;;;;4994027;28;19964;-83
2021/10/01 12:29:08;;;;;;;2.25;0.90;;;16.70;71.00;;;;;;4993937;28;20027;-83
2021/10/01 12:31:38;;;;;;;1.35;1.00;;;16.70;70.20;;;;;;4993631;28;20035;-83
2021/10/01 12:34:07;;;;;;;1.08;0.98;;;16.70;70.10;;;;;;4987498;28;20025;-83
2021/10/01 12:36:35;;;;;;;1.75;0.95;;;16.70;69.60;;;;;;4993728;28;20084;-83
2021/10/01 12:39:01;;;;;;;2.30;0.80;;;16.70;68.50;;;;;;4993540;28;20038;-83
2021/10/01 12:41:28;;;;;;;0.77;0.77;;;16.80;68.10;;;;;;4989929;28;20038;-83
2021/10/01 12:44:08;;;;;;;2.15;0.98;;;16.80;68.90;;;;;;4992332;28;20029;-83
2021/10/01 12:46:50;;;;;;;2.10;1.00;;;16.90;70.50;;;;;;4991867;28;20050;-83
2021/10/01 12:49:24;;;;;;;1.00;0.80;;;17.00;70.00;;;;;;4991950;28;20030;-83
2021/10/01 12:52:08;;;;;;;2.20;0.90;;;17.10;68.50;;;;;;4986186;28;20073;-83
2021/10/01 12:54:36;;;;;;;1.55;0.80;;;17.00;68.70;;;;;;4989676;28;20023;-83
2021/10/01 12:57:11;;;;;;;0.93;0.90;;;17.10;69.50;;;;;;4990592;28;20022;-83
2021/10/01 12:59:45;;;;;;;1.80;0.90;;;17.20;66.80;;;;;;4990691;28;20552;-83
2021/10/01 13:02:39;;;;;;;1.20;1.05;;;17.20;67.50;;;;;;4991758;28;20496;-83
2021/10/01 13:05:07;;;;;;;2.78;0.93;;;17.10;67.60;;;;;;4997566;28;20027;-83
2021/10/01 13:08:08;;;;;;;1.25;1.15;;;17.20;67.80;;;;;;4990324;28;20045;-83
2021/10/01 13:10:40;;;;;;;1.02;1.00;;;17.20;68.10;;;;;;4993058;28;20568;-83
2021/10/01 13:13:15;;;;;;;1.00;0.90;;;17.30;67.30;;;;;;5008201;28;20076;-83
2021/10/01 13:15:43;;;;;;;1.05;1.00;;;17.30;67.70;;;;;;4991210;28;20030;-83
2021/10/01 13:18:14;;;;;;;1.58;0.65;;;17.30;67.70;;;;;;5008440;28;20029;-83
2021/10/01 13:20:43;;;;;;;1.73;0.90;;;17.40;66.70;;;;;;4991420;28;20121;-83
2021/10/01 13:23:22;;;;;;;1.35;0.80;;;17.60;67.30;;;;;;4991339;28;20441;-83
2021/10/01 13:25:53;;;;;;;1.27;0.90;;;17.60;66.80;;;;;;4991006;28;20117;-83
2021/10/01 13:28:22;;;;;;;1.27;0.88;;;17.70;67.40;;;;;;4991114;28;20041;-83
2021/10/01 13:30:48;;;;;;;1.17;1.08;;;17.80;66.80;;;;;;4989180;28;20093;-83
2021/10/01 13:33:15;;;;;;;1.23;0.80;;;17.70;65.00;;;;;;4991776;28;20037;-83
2021/10/01 13:35:41;;;;;;;1.57;1.10;;;17.70;66.10;;;;;;4989973;28;20505;-83
2021/10/01 13:38:08;;;;;;;1.27;0.90;;;17.70;66.60;;;;;;4990481;28;20027;-83
2021/10/01 13:40:36;;;;;;;1.50;1.10;;;17.70;65.00;;;;;;4989957;28;20077;-83
2021/10/01 13:43:03;;;;;;;1.65;1.20;;;17.80;65.20;;;;;;4990136;28;20026;-83
2021/10/01 13:45:29;;;;;;;1.13;1.08;;;17.80;64.90;;;;;;4990310;28;21774;-83
2021/10/01 13:47:55;;;;;;;1.95;1.00;;;17.90;65.40;;;;;;4994084;28;20030;-83
2021/10/01 13:50:21;;;;;;;2.72;0.90;;;17.90;65.80;;;;;;4990010;28;20026;-83
2021/10/01 13:52:47;;;;;;;0.90;0.90;;;17.90;67.00;;;;;;4989458;28;20060;-83
2021/10/01 13:55:14;;;;;;;2.47;1.10;;;17.90;65.80;;;;;;4990569;28;20037;-83
2021/10/01 13:57:41;;;;;;;1.73;0.93;;;18.00;66.60;;;;;;4987126;28;20113;-83
2021/10/01 14:00:10;;;;;;;0.93;0.80;;;18.10;66.30;;;;;;4996158;28;20062;-83
2021/10/01 14:02:38;;;;;;;1.85;1.10;;;18.10;65.60;;;;;;4990568;28;20034;-83
2021/10/01 14:05:05;;;;;;;2.33;1.17;;;18.20;66.00;;;;;;4989744;28;20033;-83
2021/10/01 14:07:31;;;;;;;1.10;1.00;;;18.20;67.00;;;;;;4990098;28;20057;-83
2021/10/01 14:09:59;;;;;;;1.20;1.10;;;18.20;67.20;;;;;;4991188;28;20044;-83
2021/10/01 14:12:30;;;;;;;1.27;1.17;;;18.20;66.90;;;;;;4989735;28;20018;-83
2021/10/01 14:14:57;;;;;;;1.23;1.00;;;18.20;64.80;;;;;;4990244;28;20031;-83
2021/10/01 14:17:23;;;;;;;2.15;1.13;;;18.20;66.00;;;;;;4988757;28;20014;-83
2021/10/01 14:19:50;;;;;;;5.07;1.52;;;18.30;67.00;;;;;;4990796;28;20515;-83
2021/10/01 14:22:17;;;;;;;0.90;0.90;;;18.30;65.50;;;;;;4992531;28;20027;-82
2021/10/01 14:24:42;;;;;;;1.92;1.20;;;18.30;65.60;;;;;;4991337;28;20034;-83
2021/10/01 14:27:09;;;;;;;1.20;1.10;;;18.30;66.50;;;;;;4992677;28;20085;-82
2021/10/01 14:29:36;;;;;;;2.67;1.45;;;18.30;67.60;;;;;;4990348;28;20026;-84
2021/10/01 14:32:03;;;;;;;2.73;1.10;;;18.40;67.80;;;;;;4989472;28;20050;-80
2021/10/01 14:34:29;;;;;;;1.25;0.95;;;18.40;66.00;;;;;;4985123;28;20026;-83
2021/10/01 14:36:55;;;;;;;2.10;1.15;;;18.50;65.70;;;;;;4988796;28;22311;-84